sensor_id;sensor_type;location;lat;lon;timestamp;pressure;altitude;pressure_sealevel;temperature;humidity
36242;BME280;22283;42.748;12.732;2023-04-01T00:03:00;97219.97;;;13.28;78.53
36242;BME280;22283;42.748;12.732;2023-04-01T00:08:01;97226.56;;;13.24;77.33
36242;BME280;22283;42.748;12.732;2023-04-01T00:13:02;97211.88;;;13.20;79.94
36242;BME280;22283;42.748;12.732;2023-04-01T00:18:03;97215.66;;;13.00;83.26
36242;BME280;22283;42.748;12.732;2023-04-01T00:23:04;97226.13;;;12.84;85.42
36242;BME280;22283;42.748;12.732;2023-04-01T00:28:05;97231.16;;;12.77;81.02
36242;BME280;22283;42.748;12.732;2023-04-01T00:33:06;97201.16;;;12.67;83.71
36242;BME280;22283;42.748;12.732;2023-04-01T00:38:07;97234.06;;;12.56;84.09
36242;BME280;22283;42.748;12.732;2023-04-01T00:43:19;97243.63;;;12.67;84.66
36242;BME280;22283;42.748;12.732;2023-04-01T00:48:27;97274.41;;;12.60;85.06
36242;BME280;22283;42.748;12.732;2023-04-01T00:53:30;97259.69;;;12.75;87.02
36242;BME280;22283;42.748;12.732;2023-04-01T00:58:35;97257.91;;;12.66;88.32
36242;BME280;22283;42.748;12.732;2023-04-01T01:03:37;97257.16;;;12.73;84.67
36242;BME280;22283;42.748;12.732;2023-04-01T01:09:23;97244.97;;;12.80;84.42
36242;BME280;22283;42.748;12.732;2023-04-01T01:14:12;97241.13;;;12.93;82.71
36242;BME280;22283;42.748;12.732;2023-04-01T01:19:36;97224.91;;;12.96;82.36
36242;BME280;22283;42.748;12.732;2023-04-01T01:40:21;97206.97;;;13.08;78.08
36242;BME280;22283;42.748;12.732;2023-04-01T01:45:25;97199.66;;;13.10;78.37
36242;BME280;22283;42.748;12.732;2023-04-01T01:50:27;97198.06;;;12.99;79.56
36242;BME280;22283;42.748;12.732;2023-04-01T01:55:31;97206.34;;;12.96;80.01
36242;BME280;22283;42.748;12.732;2023-04-01T02:00:33;97193.84;;;12.78;81.12
36242;BME280;22283;42.748;12.732;2023-04-01T02:05:35;97187.88;;;12.76;81.80
36242;BME280;22283;42.748;12.732;2023-04-01T02:10:46;97189.16;;;12.72;80.95
36242;BME280;22283;42.748;12.732;2023-04-01T02:15:51;97190.13;;;12.71;79.86
36242;BME280;22283;42.748;12.732;2023-04-01T02:20:57;97192.88;;;12.79;78.85
36242;BME280;22283;42.748;12.732;2023-04-01T02:26:00;97202.41;;;12.72;79.61
36242;BME280;22283;42.748;12.732;2023-04-01T02:31:01;97198.28;;;12.60;80.76
36242;BME280;22283;42.748;12.732;2023-04-01T02:36:04;97199.88;;;12.53;79.86
36242;BME280;22283;42.748;12.732;2023-04-01T02:41:06;97200.31;;;12.48;81.06
36242;BME280;22283;42.748;12.732;2023-04-01T02:46:07;97197.13;;;12.35;82.53
36242;BME280;22283;42.748;12.732;2023-04-01T02:51:08;97188.44;;;12.43;83.86
36242;BME280;22283;42.748;12.732;2023-04-01T02:56:09;97200.66;;;12.36;85.28
36242;BME280;22283;42.748;12.732;2023-04-01T03:01:10;97198.56;;;12.29;88.77
36242;BME280;22283;42.748;12.732;2023-04-01T03:06:13;97202.41;;;12.07;91.81
36242;BME280;22283;42.748;12.732;2023-04-01T03:11:14;97206.50;;;11.92;93.93
36242;BME280;22283;42.748;12.732;2023-04-01T03:16:15;97199.38;;;11.93;94.85
36242;BME280;22283;42.748;12.732;2023-04-01T03:21:19;97196.47;;;11.86;95.70
36242;BME280;22283;42.748;12.732;2023-04-01T03:26:20;97205.91;;;11.79;96.04
36242;BME280;22283;42.748;12.732;2023-04-01T03:31:22;97209.44;;;11.70;97.55
36242;BME280;22283;42.748;12.732;2023-04-01T03:36:27;97198.56;;;11.63;97.96
36242;BME280;22283;42.748;12.732;2023-04-01T03:41:27;97203.72;;;11.55;98.09
36242;BME280;22283;42.748;12.732;2023-04-01T03:46:28;97198.84;;;11.50;97.78
36242;BME280;22283;42.748;12.732;2023-04-01T03:51:29;97204.97;;;11.31;98.81
36242;BME280;22283;42.748;12.732;2023-04-01T03:56:30;97204.69;;;11.15;99.09
36242;BME280;22283;42.748;12.732;2023-04-01T04:01:31;97199.97;;;11.09;96.47
36242;BME280;22283;42.748;12.732;2023-04-01T04:06:33;97202.06;;;11.15;95.27
36242;BME280;22283;42.748;12.732;2023-04-01T04:11:34;97194.81;;;11.17;94.35
36242;BME280;22283;42.748;12.732;2023-04-01T04:16:35;97196.22;;;11.21;93.62
36242;BME280;22283;42.748;12.732;2023-04-01T04:21:40;97189.66;;;11.25;94.25
36242;BME280;22283;42.748;12.732;2023-04-01T04:26:41;97189.94;;;11.22;96.25
36242;BME280;22283;42.748;12.732;2023-04-01T04:31:42;97196.63;;;11.26;96.52
36242;BME280;22283;42.748;12.732;2023-04-01T04:36:44;97203.47;;;11.10;99.39
36242;BME280;22283;42.748;12.732;2023-04-01T04:41:45;97211.91;;;10.84;100.00
36242;BME280;22283;42.748;12.732;2023-04-01T04:46:47;97213.25;;;10.59;100.00
36242;BME280;22283;42.748;12.732;2023-04-01T04:51:49;97209.53;;;10.41;100.00
36242;BME280;22283;42.748;12.732;2023-04-01T04:56:52;97208.59;;;10.21;100.00
36242;BME280;22283;42.748;12.732;2023-04-01T05:01:54;97212.22;;;10.20;100.00
36242;BME280;22283;42.748;12.732;2023-04-01T05:06:55;97214.09;;;10.29;100.00
36242;BME280;22283;42.748;12.732;2023-04-01T05:11:56;97224.84;;;10.37;99.16
36242;BME280;22283;42.748;12.732;2023-04-01T05:16:58;97235.72;;;10.44;98.70
36242;BME280;22283;42.748;12.732;2023-04-01T05:21:59;97230.50;;;10.53;97.85
36242;BME280;22283;42.748;12.732;2023-04-01T05:27:00;97231.03;;;10.57;97.07
36242;BME280;22283;42.748;12.732;2023-04-01T05:32:01;97229.44;;;10.75;95.77
36242;BME280;22283;42.748;12.732;2023-04-01T05:37:03;97232.28;;;11.03;93.43
36242;BME280;22283;42.748;12.732;2023-04-01T05:42:05;97223.25;;;11.15;93.17
36242;BME280;22283;42.748;12.732;2023-04-01T05:47:07;97222.00;;;11.39;92.99
36242;BME280;22283;42.748;12.732;2023-04-01T05:52:07;97220.00;;;11.99;89.76
36242;BME280;22283;42.748;12.732;2023-04-01T05:57:10;97246.09;;;12.78;85.08
36242;BME280;22283;42.748;12.732;2023-04-01T06:02:10;97245.16;;;13.60;79.84
36242;BME280;22283;42.748;12.732;2023-04-01T06:07:13;97248.41;;;14.34;74.33
36242;BME280;22283;42.748;12.732;2023-04-01T06:45:42;97265.44;;;16.72;62.38
36242;BME280;22283;42.748;12.732;2023-04-01T06:56:26;97265.06;;;17.00;58.04
36242;BME280;22283;42.748;12.732;2023-04-01T07:01:54;97272.66;;;17.19;57.39
36242;BME280;22283;42.748;12.732;2023-04-01T07:07:02;97275.47;;;17.18;54.80
36242;BME280;22283;42.748;12.732;2023-04-01T07:12:12;97299.47;;;17.34;53.25
36242;BME280;22283;42.748;12.732;2023-04-01T07:17:36;97291.13;;;17.60;52.38
36242;BME280;22283;42.748;12.732;2023-04-01T07:22:43;97310.09;;;17.82;51.23
36242;BME280;22283;42.748;12.732;2023-04-01T07:28:13;97309.72;;;17.85;51.25
36242;BME280;22283;42.748;12.732;2023-04-01T07:33:21;97318.13;;;17.74;51.53
36242;BME280;22283;42.748;12.732;2023-04-01T07:38:29;97319.53;;;17.61;52.25
36242;BME280;22283;42.748;12.732;2023-04-01T08:05:40;97327.34;;;15.11;60.86
36242;BME280;22283;42.748;12.732;2023-04-01T08:16:37;97327.06;;;14.36;63.86
36242;BME280;22283;42.748;12.732;2023-04-01T08:21:49;97323.19;;;14.31;64.75
36242;BME280;22283;42.748;12.732;2023-04-01T08:26:55;97328.69;;;14.73;64.29
36242;BME280;22283;42.748;12.732;2023-04-01T08:32:22;97327.53;;;15.60;58.61
36242;BME280;22283;42.748;12.732;2023-04-01T08:37:30;97341.88;;;15.76;58.04
36242;BME280;22283;42.748;12.732;2023-04-01T09:09:43;97340.19;;;18.30;46.33
36242;BME280;22283;42.748;12.732;2023-04-01T09:20:33;97327.81;;;18.96;43.94
36242;BME280;22283;42.748;12.732;2023-04-01T09:31:17;97326.63;;;19.13;41.23
36242;BME280;22283;42.748;12.732;2023-04-01T09:48:04;97344.56;;;18.46;44.64
36242;BME280;22283;42.748;12.732;2023-04-01T09:53:11;97345.88;;;18.64;41.98
36242;BME280;22283;42.748;12.732;2023-04-01T10:10:29;97328.72;;;18.36;41.50
36242;BME280;22283;42.748;12.732;2023-04-01T10:27:10;97308.13;;;17.99;42.98
36242;BME280;22283;42.748;12.732;2023-04-01T10:54:43;97286.53;;;18.00;44.84
36242;BME280;22283;42.748;12.732;2023-04-01T11:06:36;97268.13;;;17.97;44.39
36242;BME280;22283;42.748;12.732;2023-04-01T11:17:34;97258.56;;;18.55;42.91
36242;BME280;22283;42.748;12.732;2023-04-01T11:23:06;97264.81;;;18.33;43.66
36242;BME280;22283;42.748;12.732;2023-04-01T11:28:40;97256.34;;;17.60;43.89
36242;BME280;22283;42.748;12.732;2023-04-01T11:44:29;97238.25;;;17.70;43.78
36242;BME280;22283;42.748;12.732;2023-04-01T11:55:37;97232.28;;;18.06;43.11
36242;BME280;22283;42.748;12.732;2023-04-01T12:32:03;97193.03;;;17.99;43.02
36242;BME280;22283;42.748;12.732;2023-04-01T12:59:29;97154.28;;;17.72;44.48
36242;BME280;22283;42.748;12.732;2023-04-01T13:20:16;97163.28;;;16.79;48.85
36242;BME280;22283;42.748;12.732;2023-04-01T13:25:35;97186.63;;;16.37;54.69
36242;BME280;22283;42.748;12.732;2023-04-01T13:30:56;97221.13;;;13.88;59.13
36242;BME280;22283;42.748;12.732;2023-04-01T13:36:03;97216.47;;;13.46;66.89
36242;BME280;22283;42.748;12.732;2023-04-01T13:41:23;97225.53;;;13.35;79.27
36242;BME280;22283;42.748;12.732;2023-04-01T13:57:27;97289.41;;;12.78;81.74
36242;BME280;22283;42.748;12.732;2023-04-01T14:24:42;97179.97;;;14.52;72.58
36242;BME280;22283;42.748;12.732;2023-04-01T14:46:13;97186.91;;;14.87;81.78
36242;BME280;22283;42.748;12.732;2023-04-01T14:51:18;97180.91;;;14.77;75.68
36242;BME280;22283;42.748;12.732;2023-04-01T14:56:43;97173.66;;;14.53;72.33
36242;BME280;22283;42.748;12.732;2023-04-01T15:07:11;97166.97;;;14.15;80.28
36242;BME280;22283;42.748;12.732;2023-04-01T15:17:58;97179.59;;;14.47;83.08
36242;BME280;22283;42.748;12.732;2023-04-01T15:55:23;97153.22;;;15.20;59.95
36242;BME280;22283;42.748;12.732;2023-04-01T16:00:33;97160.31;;;15.04;59.72
36242;BME280;22283;42.748;12.732;2023-04-01T16:21:33;97152.09;;;14.72;54.96
36242;BME280;22283;42.748;12.732;2023-04-01T16:27:04;97160.19;;;14.55;55.06
36242;BME280;22283;42.748;12.732;2023-04-01T16:37:39;97149.19;;;14.15;55.51
36242;BME280;22283;42.748;12.732;2023-04-01T16:42:51;97154.94;;;14.02;55.53
36242;BME280;22283;42.748;12.732;2023-04-01T16:47:56;97154.31;;;13.83;57.44
36242;BME280;22283;42.748;12.732;2023-04-01T16:53:25;97146.06;;;13.68;59.15
36242;BME280;22283;42.748;12.732;2023-04-01T16:58:27;97152.31;;;13.59;60.20
36242;BME280;22283;42.748;12.732;2023-04-01T17:03:42;97142.41;;;13.43;60.67
36242;BME280;22283;42.748;12.732;2023-04-01T17:14:12;97162.66;;;13.08;69.34
36242;BME280;22283;42.748;12.732;2023-04-01T17:30:13;97193.19;;;12.76;65.74
36242;BME280;22283;42.748;12.732;2023-04-01T17:40:40;97190.03;;;12.91;60.74
36242;BME280;22283;42.748;12.732;2023-04-01T18:01:41;97215.31;;;12.30;66.54
36242;BME280;22283;42.748;12.732;2023-04-01T18:12:14;97216.91;;;12.03;68.08
36242;BME280;22283;42.748;12.732;2023-04-01T18:17:38;97220.44;;;11.94;69.11
36242;BME280;22283;42.748;12.732;2023-04-01T18:22:45;97212.22;;;11.78;69.97
36242;BME280;22283;42.748;12.732;2023-04-01T18:33:05;97239.81;;;11.75;72.04
36242;BME280;22283;42.748;12.732;2023-04-01T18:38:17;97251.28;;;11.66;72.61
36242;BME280;22283;42.748;12.732;2023-04-01T18:48:57;97268.28;;;11.64;75.01
36242;BME280;22283;42.748;12.732;2023-04-01T18:59:47;97272.59;;;11.36;77.38
36242;BME280;22283;42.748;12.732;2023-04-01T19:05:09;97283.03;;;11.27;77.78
36242;BME280;22283;42.748;12.732;2023-04-01T19:21:03;97309.47;;;11.08;80.72
36242;BME280;22283;42.748;12.732;2023-04-01T19:26:20;97307.78;;;10.97;81.39
36242;BME280;22283;42.748;12.732;2023-04-01T19:42:00;97294.72;;;10.65;83.08
36242;BME280;22283;42.748;12.732;2023-04-01T19:47:07;97300.53;;;10.59;83.18
36242;BME280;22283;42.748;12.732;2023-04-01T20:14:17;97287.06;;;10.20;82.73
36242;BME280;22283;42.748;12.732;2023-04-01T20:20:21;97287.22;;;10.19;82.77
36242;BME280;22283;42.748;12.732;2023-04-01T20:24:51;97289.28;;;10.15;81.84
36242;BME280;22283;42.748;12.732;2023-04-01T20:40:45;97296.19;;;10.27;80.46
36242;BME280;22283;42.748;12.732;2023-04-01T20:45:58;97302.19;;;10.29;81.43
36242;BME280;22283;42.748;12.732;2023-04-01T20:51:04;97308.91;;;10.33;80.75
36242;BME280;22283;42.748;12.732;2023-04-01T20:56:17;97316.94;;;10.32;80.64
36242;BME280;22283;42.748;12.732;2023-04-01T21:01:29;97325.00;;;10.30;81.86
36242;BME280;22283;42.748;12.732;2023-04-01T21:28:04;97311.44;;;9.50;86.88
36242;BME280;22283;42.748;12.732;2023-04-01T21:44:00;97309.16;;;9.02;89.42
36242;BME280;22283;42.748;12.732;2023-04-01T21:49:43;97333.41;;;8.84;91.85
36242;BME280;22283;42.748;12.732;2023-04-01T22:00:32;97356.25;;;8.28;97.55
36242;BME280;22283;42.748;12.732;2023-04-01T22:26:50;97339.31;;;8.08;100.00
36242;BME280;22283;42.748;12.732;2023-04-01T22:32:00;97334.94;;;7.96;100.00
36242;BME280;22283;42.748;12.732;2023-04-01T22:37:21;97323.88;;;7.79;100.00
36242;BME280;22283;42.748;12.732;2023-04-01T22:42:52;97334.41;;;7.79;100.00
36242;BME280;22283;42.748;12.732;2023-04-01T22:47:56;97325.09;;;7.86;100.00
36242;BME280;22283;42.748;12.732;2023-04-01T22:53:13;97315.78;;;7.94;100.00
36242;BME280;22283;42.748;12.732;2023-04-01T22:58:24;97310.84;;;7.78;100.00
36242;BME280;22283;42.748;12.732;2023-04-01T23:03:30;97309.41;;;7.50;100.00
36242;BME280;22283;42.748;12.732;2023-04-01T23:14:37;97301.88;;;7.21;100.00
36242;BME280;22283;42.748;12.732;2023-04-01T23:25:13;97283.59;;;7.55;100.00
36242;BME280;22283;42.748;12.732;2023-04-01T23:35:59;97276.53;;;7.07;100.00
36242;BME280;22283;42.748;12.732;2023-04-01T23:41:09;97275.59;;;7.08;100.00
36242;BME280;22283;42.748;12.732;2023-04-01T23:46:17;97279.66;;;6.88;100.00
36242;BME280;22283;42.748;12.732;2023-04-01T23:51:25;97277.94;;;6.63;100.00
36242;BME280;22283;42.748;12.732;2023-04-01T23:56:41;97274.59;;;6.49;100.00
